createdAt,value
2019-05-26T00:00:31.037Z,1.6
2019-05-26T00:11:10.000Z,2
2019-05-26T00:15:38.709Z,2
2019-05-26T00:26:09.480Z,2.3
2019-05-26T00:31:21.404Z,0.8
2019-05-26T00:36:38.103Z,2
2019-05-26T00:40:34.197Z,1.3
2019-05-26T00:50:50.202Z,2
2019-05-26T00:55:28.149Z,2
2019-05-26T01:00:51.722Z,1.3
2019-05-26T01:05:44.841Z,2
2019-05-26T01:26:00.439Z,2.5
2019-05-26T01:30:27.118Z,0.6
2019-05-26T01:36:27.049Z,2.4
2019-05-26T01:45:42.300Z,2.7
2019-05-26T01:50:44.519Z,1.7
2019-05-26T02:00:31.048Z,2.6
2019-05-26T02:10:40.182Z,2.1
2019-05-26T02:16:08.998Z,3
2019-05-26T02:20:21.868Z,2.5
2019-05-26T02:26:02.760Z,2.8
2019-05-26T02:30:50.249Z,1.4
2019-05-26T02:36:05.319Z,3.1
2019-05-26T02:46:09.210Z,3
2019-05-26T02:51:26.741Z,2.7
2019-05-26T02:55:18.941Z,3.2
2019-05-26T03:01:04.152Z,1.9
2019-05-26T03:11:07.027Z,3.1
2019-05-26T03:17:40.689Z,2.9
2019-05-26T03:20:45.399Z,2.7
2019-05-26T03:26:33.286Z,2.5
2019-05-26T03:31:00.920Z,2.8
2019-05-26T03:35:31.803Z,2.9
2019-05-26T03:40:26.769Z,2.9
2019-05-26T03:50:48.520Z,3.4
2019-05-26T03:55:53.559Z,3.3
2019-05-26T04:00:56.524Z,3.3
2019-05-26T04:06:52.121Z,3.3
2019-05-26T04:11:07.636Z,3
2019-05-26T04:15:39.190Z,4
2019-05-26T04:26:35.719Z,3.8
2019-05-26T04:36:42.279Z,4.1
2019-05-26T04:41:34.859Z,4.3
2019-05-26T04:45:51.560Z,4.9
2019-05-26T04:51:08.626Z,4
2019-05-26T04:55:47.630Z,4.2
2019-05-26T05:35:48.040Z,3.9
2019-05-26T05:41:10.344Z,3.7
2019-05-26T05:46:37.159Z,3.7
2019-05-26T05:51:22.699Z,3.7
2019-05-26T05:55:41.079Z,3.5
2019-05-26T06:01:18.708Z,1.7
2019-05-26T06:06:11.482Z,3.6
2019-05-26T06:26:27.161Z,1.8
2019-05-26T06:32:44.859Z,3.7
2019-05-26T06:35:44.025Z,3.3
2019-05-26T07:00:36.768Z,4.2
2019-05-26T07:06:39.192Z,4.7
2019-05-26T07:21:04.838Z,4.8
2019-05-26T07:26:27.879Z,4
2019-05-26T07:30:56.512Z,4.8
2019-05-26T07:35:21.509Z,5.1
2019-05-26T07:46:47.986Z,4.7
2019-05-26T07:50:36.607Z,5.2
2019-05-26T07:55:47.100Z,5.1
2019-05-26T08:00:28.399Z,3.5
2019-05-26T08:05:59.719Z,3.2
2019-05-26T08:13:13.559Z,5.2
2019-05-26T08:26:49.771Z,5.2
2019-05-26T08:30:38.173Z,6.3
2019-05-26T08:40:49.039Z,5.8
2019-05-26T08:45:33.417Z,5.2
2019-05-26T08:50:36.440Z,6.6
2019-05-26T08:56:07.324Z,6.8
2019-05-26T09:00:39.011Z,6.6
2019-05-26T09:05:18.314Z,7.7
2019-05-26T09:15:48.680Z,7.1
2019-05-26T09:20:22.673Z,5.5
2019-05-26T09:26:06.285Z,7.2
2019-05-26T09:32:47.730Z,7.4
2019-05-26T09:35:23.701Z,6.1
2019-05-26T09:51:50.768Z,7.6
2019-05-26T09:55:19.251Z,8.3
2019-05-26T10:01:01.720Z,9.7
2019-05-26T10:06:30.373Z,8.7
2019-05-26T10:10:38.701Z,8.7
2019-05-26T10:20:53.967Z,9.7
2019-05-26T10:25:52.280Z,5.4
2019-05-26T10:50:22.218Z,10
2019-05-26T10:55:58.149Z,10.4
2019-05-26T11:00:41.030Z,11.2
2019-05-26T11:05:24.342Z,12.4
2019-05-26T11:10:57.756Z,11.9
2019-05-26T11:15:38.497Z,12.6
2019-05-26T11:20:39.131Z,12.7
2019-05-26T11:25:32.651Z,8.3
2019-05-26T11:30:37.829Z,13.3
2019-05-26T11:35:32.975Z,13.2
2019-05-26T11:40:23.957Z,7.8
2019-05-26T11:45:41.319Z,13
2019-05-26T11:51:16.483Z,8.6
2019-05-26T11:56:53.403Z,13.4
2019-05-26T12:16:33.479Z,14.2
2019-05-26T12:30:30.441Z,12.2
2019-05-26T12:45:37.572Z,6
2019-05-26T12:51:06.549Z,5.6
2019-05-26T12:55:37.187Z,9.5
2019-05-26T13:01:01.679Z,5.6
2019-05-26T13:05:35.639Z,4.3
2019-05-26T13:10:55.988Z,8.1
2019-05-26T13:20:53.852Z,6.5
2019-05-26T13:25:29.881Z,6.7
2019-05-26T13:30:40.368Z,5.6
2019-05-26T13:35:17.291Z,6
2019-05-26T13:40:17.414Z,5.9
2019-05-26T13:45:24.261Z,4.9
2019-05-26T13:50:23.247Z,5.3
2019-05-26T13:55:17.395Z,3.6
2019-05-26T14:00:41.158Z,4.6
2019-05-26T14:05:27.403Z,5.6
2019-05-26T14:10:18.297Z,2.5
2019-05-26T14:15:39.062Z,4.3
2019-05-26T14:20:19.100Z,5.3
2019-05-26T14:25:16.971Z,4.5
2019-05-26T14:30:17.065Z,3.7
2019-05-26T14:35:16.955Z,6.5
2019-05-26T14:40:22.247Z,3.9
2019-05-26T14:45:53.167Z,4.8
2019-05-26T14:50:17.680Z,3.8
2019-05-26T14:55:24.118Z,3.1
2019-05-26T15:00:22.632Z,4.1
2019-05-26T15:05:26.693Z,2.6
2019-05-26T15:10:23.593Z,2.9
2019-05-26T15:15:17.512Z,2.4
2019-05-26T16:21:27.849Z,2.6
2019-05-26T16:30:52.240Z,2.6
2019-05-26T16:40:55.080Z,5.2
2019-05-26T16:50:19.362Z,4.6
2019-05-26T16:55:50.200Z,4.6
2019-05-26T17:00:25.400Z,5.9
2019-05-26T17:05:31.319Z,5.9
2019-05-26T17:10:24.703Z,4.2
2019-05-26T17:15:26.032Z,3.9
2019-05-26T17:20:53.153Z,4.2
2019-05-26T17:26:05.240Z,7.6
2019-05-26T17:30:18.019Z,5.3
2019-05-26T17:35:32.600Z,5.4
2019-05-26T17:40:35.274Z,6.5
2019-05-26T17:45:34.092Z,6
2019-05-26T17:50:18.606Z,5.8
2019-05-26T17:55:29.030Z,6
2019-05-26T18:00:25.942Z,5.7
2019-05-26T18:05:37.678Z,6.5
2019-05-26T18:10:22.909Z,4.1
2019-05-26T18:15:31.177Z,4.9
2019-05-26T18:20:18.000Z,4.3
2019-05-26T18:25:17.888Z,4.2
2019-05-26T18:30:23.146Z,3.9
2019-05-26T18:35:17.369Z,3
2019-05-26T18:40:18.777Z,3.5
2019-05-26T18:45:18.501Z,2.1
2019-05-26T18:50:18.238Z,3.3
2019-05-26T18:55:17.951Z,3.4
2019-05-26T19:00:17.301Z,3.2
2019-05-26T19:05:38.118Z,3
2019-05-26T19:10:17.538Z,2.7
2019-05-26T19:15:22.697Z,1.9
2019-05-26T19:20:19.658Z,2.9
2019-05-26T19:25:27.687Z,2.1
2019-05-26T19:30:18.422Z,2.6
2019-05-26T19:35:20.848Z,1.5
2019-05-26T19:40:17.189Z,3
2019-05-26T19:45:17.378Z,2.4
2019-05-26T19:50:17.485Z,2.6
2019-05-26T19:55:27.547Z,1.3
2019-05-26T20:00:29.297Z,3.1
2019-05-26T20:05:42.660Z,3.1
2019-05-26T20:10:17.964Z,2.7
2019-05-26T20:15:22.369Z,1.9
2019-05-26T20:20:37.689Z,2.6
2019-05-26T20:25:45.188Z,1.9
2019-05-26T20:30:24.129Z,3
2019-05-26T20:35:27.682Z,1.7
2019-05-26T20:40:23.465Z,2.7
2019-05-26T20:45:18.953Z,1.4
2019-05-26T20:50:33.997Z,3
2019-05-26T20:55:19.254Z,3.3
2019-05-26T21:00:25.321Z,3.7
2019-05-26T21:05:21.239Z,4.1
2019-05-26T21:10:22.569Z,2.3
2019-05-26T21:15:23.844Z,4.9
2019-05-26T21:20:17.719Z,5.3
2019-05-26T21:25:17.723Z,6.2
2019-05-26T21:30:23.157Z,6.1
2019-05-26T21:35:25.558Z,5.5
2019-05-26T21:40:25.697Z,3.3
2019-05-26T21:45:40.490Z,6
2019-05-26T21:50:18.771Z,6.3
2019-05-26T21:55:37.093Z,5.7
2019-05-26T22:01:04.369Z,5.4
2019-05-26T22:05:19.455Z,5.4
2019-05-26T22:10:36.838Z,2.3
2019-05-26T22:15:49.148Z,4.5
2019-05-26T22:20:47.813Z,4.1
2019-05-26T22:25:23.698Z,2.4
2019-05-26T22:30:49.412Z,3.5
2019-05-26T22:35:30.252Z,1.8
2019-05-26T22:40:17.746Z,3
2019-05-26T22:45:18.784Z,2.9
2019-05-26T22:50:29.413Z,0.9
2019-05-26T22:55:37.478Z,2.5
2019-05-26T23:00:19.516Z,0.7
2019-05-26T23:05:38.049Z,2.8
2019-05-26T23:10:38.777Z,0.8
2019-05-26T23:20:33.818Z,1.1
2019-05-26T23:25:41.557Z,2.3
2019-05-26T23:30:44.076Z,1.1
2019-05-26T23:35:18.640Z,2.4
2019-05-26T23:40:23.949Z,1.4
2019-05-26T23:47:17.380Z,2.4
2019-05-26T23:50:36.855Z,1.1
2019-05-26T23:55:22.179Z,2.3
